sensor_id;sensor_type;location;lat;lon;timestamp;P1;durP1;ratioP1;P2;durP2;ratioP2
74124;SDS011;62475;52.192;5.396;2023-10-31T00:01:48;252.35;;;179.55;;
74124;SDS011;62475;52.192;5.396;2023-10-31T00:04:14;149.00;;;110.85;;
74124;SDS011;62475;52.192;5.396;2023-10-31T00:06:39;135.48;;;102.80;;
74124;SDS011;62475;52.192;5.396;2023-10-31T00:09:05;225.18;;;160.02;;
74124;SDS011;62475;52.192;5.396;2023-10-31T00:11:30;236.63;;;164.32;;
74124;SDS011;62475;52.192;5.396;2023-10-31T00:13:56;321.73;;;219.55;;
74124;SDS011;62475;52.192;5.396;2023-10-31T00:16:21;466.40;;;323.30;;
74124;SDS011;62475;52.192;5.396;2023-10-31T00:18:46;526.28;;;386.95;;
74124;SDS011;62475;52.192;5.396;2023-10-31T00:21:12;571.97;;;457.38;;
74124;SDS011;62475;52.192;5.396;2023-10-31T00:23:47;515.92;;;381.10;;
74124;SDS011;62475;52.192;5.396;2023-10-31T00:28:38;502.50;;;376.63;;
74124;SDS011;62475;52.192;5.396;2023-10-31T00:31:03;412.00;;;299.17;;
74124;SDS011;62475;52.192;5.396;2023-10-31T00:33:30;337.50;;;239.05;;
74124;SDS011;62475;52.192;5.396;2023-10-31T00:35:55;417.80;;;300.45;;
74124;SDS011;62475;52.192;5.396;2023-10-31T00:38:21;293.70;;;204.38;;
74124;SDS011;62475;52.192;5.396;2023-10-31T00:40:46;228.63;;;162.10;;
74124;SDS011;62475;52.192;5.396;2023-10-31T00:43:11;236.48;;;167.35;;
74124;SDS011;62475;52.192;5.396;2023-10-31T00:45:37;262.17;;;187.63;;
74124;SDS011;62475;52.192;5.396;2023-10-31T00:48:02;282.60;;;199.70;;
74124;SDS011;62475;52.192;5.396;2023-10-31T00:50:28;280.25;;;195.60;;
74124;SDS011;62475;52.192;5.396;2023-10-31T00:52:54;208.85;;;147.60;;
74124;SDS011;62475;52.192;5.396;2023-10-31T00:55:19;208.27;;;145.50;;
74124;SDS011;62475;52.192;5.396;2023-10-31T00:57:44;211.50;;;148.57;;
74124;SDS011;62475;52.192;5.396;2023-10-31T01:00:10;229.20;;;158.23;;
74124;SDS011;62475;52.192;5.396;2023-10-31T01:02:35;227.38;;;156.35;;
74124;SDS011;62475;52.192;5.396;2023-10-31T01:05:01;256.07;;;176.60;;
74124;SDS011;62475;52.192;5.396;2023-10-31T01:07:26;338.33;;;228.70;;
74124;SDS011;62475;52.192;5.396;2023-10-31T01:09:51;316.67;;;215.40;;
74124;SDS011;62475;52.192;5.396;2023-10-31T01:12:17;288.20;;;193.15;;
74124;SDS011;62475;52.192;5.396;2023-10-31T01:14:42;285.52;;;192.60;;
74124;SDS011;62475;52.192;5.396;2023-10-31T01:17:07;276.23;;;190.85;;
74124;SDS011;62475;52.192;5.396;2023-10-31T01:19:33;348.33;;;236.50;;
74124;SDS011;62475;52.192;5.396;2023-10-31T01:22:00;302.92;;;204.93;;
74124;SDS011;62475;52.192;5.396;2023-10-31T01:24:26;338.67;;;225.63;;
74124;SDS011;62475;52.192;5.396;2023-10-31T01:26:52;395.25;;;266.15;;
74124;SDS011;62475;52.192;5.396;2023-10-31T01:29:17;450.73;;;306.70;;
74124;SDS011;62475;52.192;5.396;2023-10-31T01:31:42;473.67;;;329.50;;
74124;SDS011;62475;52.192;5.396;2023-10-31T01:34:08;376.70;;;254.52;;
74124;SDS011;62475;52.192;5.396;2023-10-31T01:36:33;480.90;;;338.77;;
74124;SDS011;62475;52.192;5.396;2023-10-31T01:38:59;510.35;;;361.77;;
74124;SDS011;62475;52.192;5.396;2023-10-31T01:41:24;466.35;;;323.27;;
74124;SDS011;62475;52.192;5.396;2023-10-31T01:43:50;447.88;;;311.33;;
74124;SDS011;62475;52.192;5.396;2023-10-31T01:46:15;375.75;;;256.38;;
74124;SDS011;62475;52.192;5.396;2023-10-31T01:48:41;364.25;;;251.13;;
74124;SDS011;62475;52.192;5.396;2023-10-31T01:51:07;367.95;;;248.77;;
74124;SDS011;62475;52.192;5.396;2023-10-31T01:53:33;403.73;;;281.70;;
74124;SDS011;62475;52.192;5.396;2023-10-31T01:56:00;466.20;;;327.20;;
74124;SDS011;62475;52.192;5.396;2023-10-31T01:58:35;343.48;;;237.02;;
74124;SDS011;62475;52.192;5.396;2023-10-31T02:01:02;325.15;;;224.27;;
74124;SDS011;62475;52.192;5.396;2023-10-31T02:03:29;368.00;;;254.98;;
74124;SDS011;62475;52.192;5.396;2023-10-31T02:05:54;310.23;;;214.15;;
74124;SDS011;62475;52.192;5.396;2023-10-31T02:08:20;312.63;;;214.98;;
74124;SDS011;62475;52.192;5.396;2023-10-31T02:10:46;316.27;;;218.77;;
74124;SDS011;62475;52.192;5.396;2023-10-31T02:13:11;323.33;;;223.98;;
74124;SDS011;62475;52.192;5.396;2023-10-31T02:15:37;321.52;;;222.68;;
74124;SDS011;62475;52.192;5.396;2023-10-31T02:18:03;424.70;;;291.95;;
74124;SDS011;62475;52.192;5.396;2023-10-31T02:20:28;281.65;;;191.85;;
74124;SDS011;62475;52.192;5.396;2023-10-31T02:22:54;262.92;;;180.95;;
74124;SDS011;62475;52.192;5.396;2023-10-31T02:25:19;374.02;;;256.23;;
74124;SDS011;62475;52.192;5.396;2023-10-31T02:27:45;203.27;;;139.05;;
74124;SDS011;62475;52.192;5.396;2023-10-31T02:30:10;197.88;;;137.30;;
74124;SDS011;62475;52.192;5.396;2023-10-31T02:32:36;215.85;;;148.82;;
74124;SDS011;62475;52.192;5.396;2023-10-31T02:35:01;240.57;;;163.97;;
74124;SDS011;62475;52.192;5.396;2023-10-31T02:37:27;242.60;;;164.95;;
74124;SDS011;62475;52.192;5.396;2023-10-31T02:39:52;290.50;;;197.07;;
74124;SDS011;62475;52.192;5.396;2023-10-31T02:42:17;303.08;;;205.52;;
74124;SDS011;62475;52.192;5.396;2023-10-31T02:44:43;356.75;;;241.75;;
74124;SDS011;62475;52.192;5.396;2023-10-31T02:47:08;300.45;;;205.55;;
74124;SDS011;62475;52.192;5.396;2023-10-31T02:49:33;322.83;;;219.40;;
74124;SDS011;62475;52.192;5.396;2023-10-31T02:51:58;376.30;;;256.73;;
74124;SDS011;62475;52.192;5.396;2023-10-31T02:54:24;399.00;;;275.97;;
74124;SDS011;62475;52.192;5.396;2023-10-31T02:56:49;477.92;;;338.00;;
74124;SDS011;62475;52.192;5.396;2023-10-31T02:59:14;442.87;;;307.67;;
74124;SDS011;62475;52.192;5.396;2023-10-31T03:01:40;478.50;;;336.25;;
74124;SDS011;62475;52.192;5.396;2023-10-31T03:04:05;305.02;;;209.98;;
74124;SDS011;62475;52.192;5.396;2023-10-31T03:06:31;364.42;;;248.93;;
74124;SDS011;62475;52.192;5.396;2023-10-31T03:08:56;461.05;;;324.50;;
74124;SDS011;62475;52.192;5.396;2023-10-31T03:11:25;357.60;;;246.23;;
74124;SDS011;62475;52.192;5.396;2023-10-31T03:13:51;344.63;;;234.98;;
74124;SDS011;62475;52.192;5.396;2023-10-31T03:16:18;298.10;;;205.35;;
74124;SDS011;62475;52.192;5.396;2023-10-31T03:18:44;376.50;;;254.43;;
74124;SDS011;62475;52.192;5.396;2023-10-31T03:21:10;356.23;;;240.38;;
74124;SDS011;62475;52.192;5.396;2023-10-31T03:23:35;390.90;;;265.23;;
74124;SDS011;62475;52.192;5.396;2023-10-31T03:26:00;377.53;;;256.70;;
74124;SDS011;62475;52.192;5.396;2023-10-31T03:28:26;425.27;;;290.67;;
74124;SDS011;62475;52.192;5.396;2023-10-31T03:30:53;328.95;;;224.13;;
74124;SDS011;62475;52.192;5.396;2023-10-31T03:33:18;371.13;;;249.70;;
74124;SDS011;62475;52.192;5.396;2023-10-31T03:35:44;433.77;;;295.15;;
74124;SDS011;62475;52.192;5.396;2023-10-31T03:38:10;459.92;;;315.77;;
74124;SDS011;62475;52.192;5.396;2023-10-31T03:40:36;464.77;;;319.55;;
74124;SDS011;62475;52.192;5.396;2023-10-31T03:43:02;458.00;;;308.42;;
74124;SDS011;62475;52.192;5.396;2023-10-31T03:45:28;451.08;;;304.98;;
74124;SDS011;62475;52.192;5.396;2023-10-31T03:47:54;467.85;;;321.10;;
74124;SDS011;62475;52.192;5.396;2023-10-31T03:50:19;523.47;;;377.45;;
74124;SDS011;62475;52.192;5.396;2023-10-31T03:52:44;445.30;;;312.30;;
74124;SDS011;62475;52.192;5.396;2023-10-31T03:55:10;455.45;;;314.63;;
74124;SDS011;62475;52.192;5.396;2023-10-31T03:57:37;503.30;;;354.13;;
74124;SDS011;62475;52.192;5.396;2023-10-31T04:00:02;380.73;;;261.55;;
74124;SDS011;62475;52.192;5.396;2023-10-31T04:02:29;322.25;;;221.30;;
74124;SDS011;62475;52.192;5.396;2023-10-31T04:04:55;341.65;;;235.43;;
74124;SDS011;62475;52.192;5.396;2023-10-31T04:07:20;241.77;;;168.30;;
74124;SDS011;62475;52.192;5.396;2023-10-31T04:09:46;277.60;;;192.40;;
74124;SDS011;62475;52.192;5.396;2023-10-31T04:12:12;236.68;;;163.80;;
74124;SDS011;62475;52.192;5.396;2023-10-31T04:14:38;299.45;;;206.63;;
74124;SDS011;62475;52.192;5.396;2023-10-31T04:17:05;280.83;;;196.65;;
74124;SDS011;62475;52.192;5.396;2023-10-31T04:19:30;325.38;;;229.02;;
74124;SDS011;62475;52.192;5.396;2023-10-31T04:21:56;291.75;;;203.20;;
74124;SDS011;62475;52.192;5.396;2023-10-31T04:24:21;336.77;;;233.23;;
74124;SDS011;62475;52.192;5.396;2023-10-31T04:26:46;386.10;;;271.77;;
74124;SDS011;62475;52.192;5.396;2023-10-31T04:29:13;327.48;;;228.05;;
74124;SDS011;62475;52.192;5.396;2023-10-31T04:31:38;347.80;;;244.77;;
74124;SDS011;62475;52.192;5.396;2023-10-31T04:34:04;411.33;;;286.30;;
74124;SDS011;62475;52.192;5.396;2023-10-31T04:36:29;355.55;;;246.13;;
74124;SDS011;62475;52.192;5.396;2023-10-31T04:38:54;364.65;;;255.20;;
74124;SDS011;62475;52.192;5.396;2023-10-31T04:41:20;370.08;;;256.17;;
74124;SDS011;62475;52.192;5.396;2023-10-31T04:43:45;268.38;;;187.25;;
74124;SDS011;62475;52.192;5.396;2023-10-31T04:46:11;321.15;;;222.93;;
74124;SDS011;62475;52.192;5.396;2023-10-31T04:48:36;347.23;;;237.35;;
74124;SDS011;62475;52.192;5.396;2023-10-31T04:51:02;242.63;;;173.20;;
74124;SDS011;62475;52.192;5.396;2023-10-31T04:53:27;306.80;;;214.57;;
74124;SDS011;62475;52.192;5.396;2023-10-31T04:55:54;322.90;;;226.35;;
74124;SDS011;62475;52.192;5.396;2023-10-31T04:58:19;246.25;;;172.75;;
74124;SDS011;62475;52.192;5.396;2023-10-31T05:00:45;331.50;;;233.30;;
74124;SDS011;62475;52.192;5.396;2023-10-31T05:03:10;270.48;;;191.07;;
74124;SDS011;62475;52.192;5.396;2023-10-31T05:05:36;332.85;;;231.90;;
74124;SDS011;62475;52.192;5.396;2023-10-31T05:08:01;239.70;;;167.77;;
74124;SDS011;62475;52.192;5.396;2023-10-31T05:10:26;277.98;;;195.63;;
74124;SDS011;62475;52.192;5.396;2023-10-31T05:12:51;260.48;;;185.07;;
74124;SDS011;62475;52.192;5.396;2023-10-31T05:15:18;315.00;;;218.85;;
74124;SDS011;62475;52.192;5.396;2023-10-31T05:17:43;288.33;;;202.98;;
74124;SDS011;62475;52.192;5.396;2023-10-31T05:20:09;315.90;;;220.90;;
74124;SDS011;62475;52.192;5.396;2023-10-31T05:22:35;290.92;;;202.93;;
74124;SDS011;62475;52.192;5.396;2023-10-31T05:25:01;221.45;;;158.23;;
74124;SDS011;62475;52.192;5.396;2023-10-31T05:27:27;280.60;;;194.07;;
74124;SDS011;62475;52.192;5.396;2023-10-31T05:29:53;296.48;;;203.82;;
74124;SDS011;62475;52.192;5.396;2023-10-31T05:32:18;327.50;;;225.13;;
74124;SDS011;62475;52.192;5.396;2023-10-31T05:34:47;212.48;;;151.25;;
74124;SDS011;62475;52.192;5.396;2023-10-31T05:37:12;211.80;;;149.48;;
74124;SDS011;62475;52.192;5.396;2023-10-31T05:39:37;261.67;;;183.13;;
74124;SDS011;62475;52.192;5.396;2023-10-31T05:42:03;105.50;;;81.93;;
74124;SDS011;62475;52.192;5.396;2023-10-31T05:44:28;74.40;;;57.80;;
74124;SDS011;62475;52.192;5.396;2023-10-31T05:46:54;68.70;;;55.22;;
74124;SDS011;62475;52.192;5.396;2023-10-31T05:49:20;121.67;;;89.30;;
74124;SDS011;62475;52.192;5.396;2023-10-31T05:51:49;209.90;;;149.57;;
74124;SDS011;62475;52.192;5.396;2023-10-31T05:54:16;186.82;;;130.82;;
74124;SDS011;62475;52.192;5.396;2023-10-31T05:56:41;171.30;;;118.93;;
74124;SDS011;62475;52.192;5.396;2023-10-31T05:59:07;87.25;;;66.13;;
74124;SDS011;62475;52.192;5.396;2023-10-31T06:01:32;161.82;;;113.20;;
74124;SDS011;62475;52.192;5.396;2023-10-31T06:03:58;139.75;;;97.38;;
74124;SDS011;62475;52.192;5.396;2023-10-31T06:06:24;236.52;;;165.02;;
74124;SDS011;62475;52.192;5.396;2023-10-31T06:08:50;225.05;;;160.13;;
74124;SDS011;62475;52.192;5.396;2023-10-31T06:11:15;85.13;;;58.92;;
74124;SDS011;62475;52.192;5.396;2023-10-31T06:13:40;210.30;;;149.23;;
74124;SDS011;62475;52.192;5.396;2023-10-31T06:16:07;81.82;;;54.65;;
74124;SDS011;62475;52.192;5.396;2023-10-31T06:18:33;19.95;;;9.93;;
74124;SDS011;62475;52.192;5.396;2023-10-31T06:20:59;180.13;;;125.90;;
74124;SDS011;62475;52.192;5.396;2023-10-31T06:23:24;315.37;;;213.83;;
74124;SDS011;62475;52.192;5.396;2023-10-31T06:25:50;311.50;;;213.90;;
74124;SDS011;62475;52.192;5.396;2023-10-31T06:28:16;246.20;;;169.13;;
74124;SDS011;62475;52.192;5.396;2023-10-31T06:30:42;304.30;;;205.93;;
74124;SDS011;62475;52.192;5.396;2023-10-31T06:33:07;189.50;;;135.43;;
74124;SDS011;62475;52.192;5.396;2023-10-31T06:35:33;274.35;;;187.45;;
74124;SDS011;62475;52.192;5.396;2023-10-31T06:37:59;245.50;;;171.52;;
74124;SDS011;62475;52.192;5.396;2023-10-31T06:40:24;155.43;;;108.55;;
74124;SDS011;62475;52.192;5.396;2023-10-31T06:42:50;181.68;;;125.53;;
74124;SDS011;62475;52.192;5.396;2023-10-31T06:45:22;321.88;;;219.75;;
74124;SDS011;62475;52.192;5.396;2023-10-31T06:47:49;495.08;;;356.70;;
74124;SDS011;62475;52.192;5.396;2023-10-31T06:50:15;489.05;;;351.15;;
74124;SDS011;62475;52.192;5.396;2023-10-31T06:52:40;438.42;;;312.88;;
74124;SDS011;62475;52.192;5.396;2023-10-31T06:55:06;511.50;;;373.77;;
74124;SDS011;62475;52.192;5.396;2023-10-31T06:57:31;494.98;;;359.33;;
74124;SDS011;62475;52.192;5.396;2023-10-31T06:59:57;469.38;;;338.48;;
74124;SDS011;62475;52.192;5.396;2023-10-31T07:02:22;557.50;;;421.63;;
74124;SDS011;62475;52.192;5.396;2023-10-31T07:04:48;505.60;;;369.13;;
74124;SDS011;62475;52.192;5.396;2023-10-31T07:07:14;473.30;;;333.02;;
74124;SDS011;62475;52.192;5.396;2023-10-31T07:09:39;506.27;;;355.30;;
74124;SDS011;62475;52.192;5.396;2023-10-31T07:12:06;572.53;;;429.67;;
74124;SDS011;62475;52.192;5.396;2023-10-31T07:14:31;554.45;;;405.38;;
74124;SDS011;62475;52.192;5.396;2023-10-31T07:16:57;558.65;;;421.80;;
74124;SDS011;62475;52.192;5.396;2023-10-31T07:19:22;540.10;;;399.73;;
74124;SDS011;62475;52.192;5.396;2023-10-31T07:21:48;487.08;;;352.25;;
74124;SDS011;62475;52.192;5.396;2023-10-31T07:24:13;458.48;;;328.55;;
74124;SDS011;62475;52.192;5.396;2023-10-31T07:26:38;375.90;;;266.67;;
74124;SDS011;62475;52.192;5.396;2023-10-31T07:29:04;361.92;;;255.88;;
74124;SDS011;62475;52.192;5.396;2023-10-31T07:31:30;375.20;;;262.25;;
74124;SDS011;62475;52.192;5.396;2023-10-31T07:33:55;379.52;;;268.23;;
74124;SDS011;62475;52.192;5.396;2023-10-31T07:36:21;341.52;;;237.95;;
74124;SDS011;62475;52.192;5.396;2023-10-31T07:38:48;347.70;;;242.45;;
74124;SDS011;62475;52.192;5.396;2023-10-31T07:41:13;371.42;;;255.95;;
74124;SDS011;62475;52.192;5.396;2023-10-31T07:43:39;367.77;;;251.57;;
74124;SDS011;62475;52.192;5.396;2023-10-31T07:46:04;375.80;;;256.83;;
74124;SDS011;62475;52.192;5.396;2023-10-31T07:48:31;334.40;;;231.70;;
74124;SDS011;62475;52.192;5.396;2023-10-31T07:50:59;318.08;;;222.73;;
74124;SDS011;62475;52.192;5.396;2023-10-31T07:53:24;315.23;;;213.85;;
74124;SDS011;62475;52.192;5.396;2023-10-31T07:55:50;337.80;;;232.93;;
74124;SDS011;62475;52.192;5.396;2023-10-31T07:58:15;453.70;;;305.30;;
74124;SDS011;62475;52.192;5.396;2023-10-31T08:00:40;373.55;;;254.43;;
74124;SDS011;62475;52.192;5.396;2023-10-31T08:03:06;403.48;;;276.33;;
74124;SDS011;62475;52.192;5.396;2023-10-31T08:05:31;389.35;;;264.83;;
74124;SDS011;62475;52.192;5.396;2023-10-31T08:07:56;406.08;;;276.83;;
74124;SDS011;62475;52.192;5.396;2023-10-31T08:10:22;419.00;;;282.25;;
74124;SDS011;62475;52.192;5.396;2023-10-31T08:12:47;435.67;;;296.58;;
74124;SDS011;62475;52.192;5.396;2023-10-31T08:15:13;387.08;;;259.92;;
74124;SDS011;62475;52.192;5.396;2023-10-31T08:17:39;448.98;;;302.00;;
74124;SDS011;62475;52.192;5.396;2023-10-31T08:20:04;438.00;;;291.38;;
74124;SDS011;62475;52.192;5.396;2023-10-31T08:22:31;419.38;;;281.55;;
74124;SDS011;62475;52.192;5.396;2023-10-31T08:24:57;421.52;;;278.70;;
74124;SDS011;62475;52.192;5.396;2023-10-31T08:27:22;479.25;;;329.83;;
74124;SDS011;62475;52.192;5.396;2023-10-31T08:29:48;511.23;;;346.20;;
74124;SDS011;62475;52.192;5.396;2023-10-31T08:32:13;548.63;;;386.98;;
74124;SDS011;62475;52.192;5.396;2023-10-31T08:34:39;568.67;;;400.15;;
74124;SDS011;62475;52.192;5.396;2023-10-31T08:37:04;600.33;;;431.17;;
74124;SDS011;62475;52.192;5.396;2023-10-31T08:39:31;569.55;;;401.80;;
74124;SDS011;62475;52.192;5.396;2023-10-31T08:41:57;547.88;;;380.85;;
74124;SDS011;62475;52.192;5.396;2023-10-31T08:44:23;516.80;;;348.35;;
74124;SDS011;62475;52.192;5.396;2023-10-31T08:46:48;540.72;;;371.70;;
74124;SDS011;62475;52.192;5.396;2023-10-31T08:49:14;537.20;;;368.42;;
74124;SDS011;62475;52.192;5.396;2023-10-31T08:51:41;537.80;;;365.80;;
74124;SDS011;62475;52.192;5.396;2023-10-31T08:54:06;500.65;;;336.52;;
74124;SDS011;62475;52.192;5.396;2023-10-31T08:56:35;514.80;;;344.35;;
74124;SDS011;62475;52.192;5.396;2023-10-31T08:59:00;456.37;;;302.17;;
74124;SDS011;62475;52.192;5.396;2023-10-31T09:01:26;452.92;;;298.30;;
74124;SDS011;62475;52.192;5.396;2023-10-31T09:03:52;466.88;;;311.83;;
74124;SDS011;62475;52.192;5.396;2023-10-31T09:06:17;511.85;;;340.20;;
74124;SDS011;62475;52.192;5.396;2023-10-31T09:08:43;467.02;;;305.23;;
74124;SDS011;62475;52.192;5.396;2023-10-31T09:11:09;459.33;;;299.10;;
74124;SDS011;62475;52.192;5.396;2023-10-31T09:13:34;524.28;;;345.58;;
74124;SDS011;62475;52.192;5.396;2023-10-31T09:15:59;519.40;;;344.63;;
74124;SDS011;62475;52.192;5.396;2023-10-31T09:18:25;494.05;;;323.88;;
74124;SDS011;62475;52.192;5.396;2023-10-31T09:20:50;513.70;;;339.00;;
74124;SDS011;62475;52.192;5.396;2023-10-31T09:23:16;542.40;;;363.27;;
74124;SDS011;62475;52.192;5.396;2023-10-31T09:25:42;515.20;;;342.40;;
74124;SDS011;62475;52.192;5.396;2023-10-31T09:28:11;527.30;;;349.27;;
74124;SDS011;62475;52.192;5.396;2023-10-31T09:30:36;512.30;;;337.30;;
74124;SDS011;62475;52.192;5.396;2023-10-31T09:33:03;494.67;;;317.63;;
74124;SDS011;62475;52.192;5.396;2023-10-31T09:35:28;506.15;;;327.70;;
74124;SDS011;62475;52.192;5.396;2023-10-31T09:37:54;526.38;;;339.88;;
74124;SDS011;62475;52.192;5.396;2023-10-31T09:40:20;495.30;;;319.90;;
74124;SDS011;62475;52.192;5.396;2023-10-31T09:42:46;499.52;;;319.52;;
74124;SDS011;62475;52.192;5.396;2023-10-31T09:45:11;373.80;;;237.98;;
74124;SDS011;62475;52.192;5.396;2023-10-31T09:47:38;384.15;;;244.55;;
74124;SDS011;62475;52.192;5.396;2023-10-31T09:50:03;473.77;;;303.10;;
74124;SDS011;62475;52.192;5.396;2023-10-31T09:52:29;463.30;;;290.60;;
74124;SDS011;62475;52.192;5.396;2023-10-31T09:54:54;494.13;;;314.65;;
74124;SDS011;62475;52.192;5.396;2023-10-31T09:57:21;474.58;;;300.73;;
74124;SDS011;62475;52.192;5.396;2023-10-31T09:59:46;340.90;;;214.13;;
74124;SDS011;62475;52.192;5.396;2023-10-31T10:02:12;483.80;;;304.67;;
74124;SDS011;62475;52.192;5.396;2023-10-31T10:04:37;397.38;;;250.18;;
74124;SDS011;62475;52.192;5.396;2023-10-31T10:07:03;421.45;;;266.83;;
74124;SDS011;62475;52.192;5.396;2023-10-31T10:09:29;417.48;;;265.05;;
74124;SDS011;62475;52.192;5.396;2023-10-31T10:11:56;444.75;;;284.20;;
74124;SDS011;62475;52.192;5.396;2023-10-31T10:14:24;425.98;;;269.25;;
74124;SDS011;62475;52.192;5.396;2023-10-31T10:16:53;417.95;;;261.52;;
74124;SDS011;62475;52.192;5.396;2023-10-31T10:19:19;275.92;;;178.02;;
74124;SDS011;62475;52.192;5.396;2023-10-31T10:21:50;391.83;;;245.15;;
74124;SDS011;62475;52.192;5.396;2023-10-31T10:24:18;471.50;;;303.08;;
74124;SDS011;62475;52.192;5.396;2023-10-31T10:26:44;478.58;;;304.17;;
74124;SDS011;62475;52.192;5.396;2023-10-31T10:29:10;455.42;;;285.60;;
74124;SDS011;62475;52.192;5.396;2023-10-31T10:31:35;485.63;;;309.75;;
74124;SDS011;62475;52.192;5.396;2023-10-31T10:34:00;469.40;;;298.88;;
74124;SDS011;62475;52.192;5.396;2023-10-31T10:36:28;457.65;;;283.88;;
74124;SDS011;62475;52.192;5.396;2023-10-31T10:38:57;473.48;;;293.90;;
74124;SDS011;62475;52.192;5.396;2023-10-31T10:41:26;474.65;;;295.92;;
74124;SDS011;62475;52.192;5.396;2023-10-31T10:44:05;421.15;;;255.18;;
74124;SDS011;62475;52.192;5.396;2023-10-31T10:46:35;417.92;;;253.57;;
74124;SDS011;62475;52.192;5.396;2023-10-31T10:49:05;481.92;;;300.88;;
74124;SDS011;62475;52.192;5.396;2023-10-31T10:59:48;457.30;;;282.05;;
74124;SDS011;62475;52.192;5.396;2023-10-31T11:02:18;512.97;;;328.15;;
74124;SDS011;62475;52.192;5.396;2023-10-31T11:04:44;503.48;;;325.90;;
74124;SDS011;62475;52.192;5.396;2023-10-31T11:07:10;508.92;;;327.13;;
74124;SDS011;62475;52.192;5.396;2023-10-31T11:09:37;488.58;;;299.25;;
74124;SDS011;62475;52.192;5.396;2023-10-31T11:12:03;462.77;;;287.60;;
74124;SDS011;62475;52.192;5.396;2023-10-31T11:14:30;516.35;;;340.02;;
74124;SDS011;62475;52.192;5.396;2023-10-31T11:16:58;526.55;;;365.83;;
74124;SDS011;62475;52.192;5.396;2023-10-31T11:19:27;524.55;;;362.10;;
74124;SDS011;62475;52.192;5.396;2023-10-31T11:22:00;536.33;;;354.55;;
74124;SDS011;62475;52.192;5.396;2023-10-31T11:24:35;544.20;;;387.17;;
74124;SDS011;62475;52.192;5.396;2023-10-31T11:27:02;520.67;;;357.70;;
74124;SDS011;62475;52.192;5.396;2023-10-31T11:29:30;527.53;;;366.63;;
74124;SDS011;62475;52.192;5.396;2023-10-31T11:31:56;543.95;;;394.63;;
74124;SDS011;62475;52.192;5.396;2023-10-31T11:34:22;544.97;;;375.25;;
74124;SDS011;62475;52.192;5.396;2023-10-31T11:36:50;555.72;;;384.75;;
74124;SDS011;62475;52.192;5.396;2023-10-31T11:39:17;557.20;;;376.27;;
74124;SDS011;62475;52.192;5.396;2023-10-31T11:41:49;693.30;;;485.23;;
74124;SDS011;62475;52.192;5.396;2023-10-31T11:44:18;686.03;;;478.08;;
74124;SDS011;62475;52.192;5.396;2023-10-31T11:46:49;587.55;;;389.13;;
74124;SDS011;62475;52.192;5.396;2023-10-31T11:49:17;615.22;;;409.90;;
74124;SDS011;62475;52.192;5.396;2023-10-31T11:51:44;572.90;;;368.10;;
74124;SDS011;62475;52.192;5.396;2023-10-31T11:54:12;579.22;;;375.05;;
74124;SDS011;62475;52.192;5.396;2023-10-31T11:56:38;624.85;;;433.77;;
74124;SDS011;62475;52.192;5.396;2023-10-31T11:59:04;578.30;;;384.58;;
74124;SDS011;62475;52.192;5.396;2023-10-31T12:01:32;534.35;;;347.73;;
74124;SDS011;62475;52.192;5.396;2023-10-31T12:03:57;510.55;;;330.92;;
74124;SDS011;62475;52.192;5.396;2023-10-31T12:06:23;462.63;;;297.08;;
74124;SDS011;62475;52.192;5.396;2023-10-31T12:08:49;500.63;;;325.33;;
74124;SDS011;62475;52.192;5.396;2023-10-31T12:11:15;528.03;;;340.42;;
74124;SDS011;62475;52.192;5.396;2023-10-31T12:16:28;463.15;;;291.40;;
74124;SDS011;62475;52.192;5.396;2023-10-31T12:18:58;389.27;;;249.63;;
74124;SDS011;62475;52.192;5.396;2023-10-31T12:21:37;457.00;;;288.88;;
74124;SDS011;62475;52.192;5.396;2023-10-31T12:24:04;482.55;;;304.98;;
74124;SDS011;62475;52.192;5.396;2023-10-31T12:26:31;491.65;;;315.80;;
74124;SDS011;62475;52.192;5.396;2023-10-31T12:29:14;607.42;;;404.10;;
74124;SDS011;62475;52.192;5.396;2023-10-31T12:31:44;617.95;;;413.75;;
74124;SDS011;62475;52.192;5.396;2023-10-31T12:34:11;638.80;;;432.65;;
74124;SDS011;62475;52.192;5.396;2023-10-31T12:36:36;647.40;;;447.20;;
74124;SDS011;62475;52.192;5.396;2023-10-31T12:39:12;647.67;;;448.45;;
74124;SDS011;62475;52.192;5.396;2023-10-31T12:41:41;600.53;;;404.88;;
74124;SDS011;62475;52.192;5.396;2023-10-31T12:44:06;591.25;;;397.92;;
74124;SDS011;62475;52.192;5.396;2023-10-31T12:46:35;553.67;;;367.60;;
74124;SDS011;62475;52.192;5.396;2023-10-31T12:49:10;533.67;;;349.95;;
74124;SDS011;62475;52.192;5.396;2023-10-31T12:51:54;565.10;;;373.95;;
74124;SDS011;62475;52.192;5.396;2023-10-31T12:54:28;564.38;;;373.05;;
74124;SDS011;62475;52.192;5.396;2023-10-31T12:57:00;605.42;;;424.13;;
74124;SDS011;62475;52.192;5.396;2023-10-31T12:59:37;565.22;;;388.02;;
74124;SDS011;62475;52.192;5.396;2023-10-31T13:02:03;533.35;;;364.40;;
74124;SDS011;62475;52.192;5.396;2023-10-31T13:04:32;475.73;;;313.27;;
74124;SDS011;62475;52.192;5.396;2023-10-31T13:07:03;474.65;;;313.33;;
74124;SDS011;62475;52.192;5.396;2023-10-31T13:09:30;473.85;;;310.25;;
74124;SDS011;62475;52.192;5.396;2023-10-31T13:12:01;460.25;;;298.48;;
74124;SDS011;62475;52.192;5.396;2023-10-31T13:14:28;482.35;;;314.83;;
74124;SDS011;62475;52.192;5.396;2023-10-31T13:16:54;477.73;;;312.30;;
74124;SDS011;62475;52.192;5.396;2023-10-31T13:19:19;473.05;;;309.98;;
74124;SDS011;62475;52.192;5.396;2023-10-31T13:21:44;463.92;;;302.90;;
74124;SDS011;62475;52.192;5.396;2023-10-31T13:24:10;469.27;;;306.27;;
74124;SDS011;62475;52.192;5.396;2023-10-31T13:26:35;464.15;;;301.73;;
74124;SDS011;62475;52.192;5.396;2023-10-31T13:29:01;462.67;;;303.77;;
74124;SDS011;62475;52.192;5.396;2023-10-31T13:31:28;456.35;;;300.13;;
74124;SDS011;62475;52.192;5.396;2023-10-31T13:33:55;434.63;;;282.88;;
74124;SDS011;62475;52.192;5.396;2023-10-31T13:36:20;428.73;;;277.08;;
74124;SDS011;62475;52.192;5.396;2023-10-31T13:38:45;449.65;;;293.83;;
74124;SDS011;62475;52.192;5.396;2023-10-31T13:41:13;446.13;;;284.15;;
74124;SDS011;62475;52.192;5.396;2023-10-31T13:43:38;439.75;;;278.77;;
74124;SDS011;62475;52.192;5.396;2023-10-31T13:46:04;428.67;;;274.52;;
74124;SDS011;62475;52.192;5.396;2023-10-31T13:48:31;422.77;;;269.23;;
74124;SDS011;62475;52.192;5.396;2023-10-31T13:50:56;432.40;;;277.13;;
74124;SDS011;62475;52.192;5.396;2023-10-31T13:53:21;436.90;;;281.90;;
74124;SDS011;62475;52.192;5.396;2023-10-31T13:55:47;446.17;;;286.60;;
74124;SDS011;62475;52.192;5.396;2023-10-31T13:58:12;460.42;;;303.65;;
74124;SDS011;62475;52.192;5.396;2023-10-31T14:00:37;533.80;;;366.10;;
74124;SDS011;62475;52.192;5.396;2023-10-31T14:03:03;482.10;;;320.48;;
74124;SDS011;62475;52.192;5.396;2023-10-31T14:05:28;499.13;;;336.35;;